This is the latest recevied weather packets stored in our database for station/object N0HEQ. If no packets are shown the sender has not sent any weather packets the latest 10 day(s).
| Time | Temp. | Humidity | Pressure | Rain* | Wind** | Luminosity | Snow |
|---|---|---|---|---|---|---|---|
| 1777747103 | 19.44° C | 16% | 1023.5 hPa | 0 mm | - | 312 W/m² | - |
| 1777741643 | 16.67° C | 21% | 1024.5 hPa | 0 mm | - | 226 W/m² | - |
| 1777741340 | 16.67° C | 20% | 1024.6 hPa | 0 mm | - | 720 W/m² | - |
| 1777739822 | 16.11° C | 20% | 1024.7 hPa | 0 mm | - | 112 W/m² | - |
| 1777738913 | 15.56° C | 23% | 1024.6 hPa | 0 mm | - | 49 W/m² | - |
| 1777738610 | 15.56° C | 23% | 1024.7 hPa | 0 mm | - | 118 W/m² | - |
| 1777738005 | 15° C | 23% | 1024.9 hPa | 0 mm | - | 451 W/m² | - |
| 1777736165 | 13.33° C | 30% | 1024.9 hPa | 0 mm | - | 190 W/m² | - |
| 1777735863 | 13.33° C | 29% | 1025.2 hPa | 0 mm | - | 305 W/m² | - |
| 1777735560 | 12.78° C | 30% | 1025.1 hPa | 0 mm | - | 82 W/m² | - |
| 1777735257 | 12.78° C | 30% | 1025.1 hPa | 0 mm | - | 81 W/m² | - |
| 1777734954 | 12.78° C | 31% | 1025.5 hPa | 0 mm | - | 39 W/m² | - |
| 1777734652 | 12.22° C | 33% | 1025.3 hPa | 0 mm | - | 138 W/m² | - |
| 1777734349 | 12.22° C | 33% | 1025.4 hPa | 0 mm | - | 38 W/m² | - |
| 1777734045 | 11.67° C | 33% | 1025.5 hPa | 0 mm | - | 107 W/m² | - |
| 1777733741 | 11.67° C | 32% | 1025.4 hPa | 0 mm | - | 78 W/m² | - |
| 1777733438 | 11.11° C | 33% | 1025.6 hPa | 0 mm | - | 210 W/m² | - |
| 1777733134 | 11.11° C | 35% | 1025.5 hPa | 0 mm | - | 57 W/m² | - |
| 1777732831 | 10.56° C | 35% | 1025.6 hPa | 0 mm | - | 61 W/m² | - |
| 1777732528 | 10.56° C | 37% | 1025.5 hPa | 0 mm | - | 116 W/m² | - |
| 1777732226 | 10° C | 37% | 1025.5 hPa | 0 mm | - | 134 W/m² | - |
| 1777731923 | 9.44° C | 39% | 1025.5 hPa | 0 mm | - | 184 W/m² | - |
| 1777731619 | 9.44° C | 39% | 1025.4 hPa | 0 mm | - | 105 W/m² | - |
| 1777731317 | 9.44° C | 39% | 1025.5 hPa | 0 mm | - | 87 W/m² | - |
| 1777731015 | 9.44° C | 41% | 1025.5 hPa | 0 mm | - | 58 W/m² | - |
* Rain latest hour (hover to see other rain measurements)
** Current wind speed in m/s (hover to see current wind gust speed)